createdAt,value
2023-02-06T00:00:06.170Z,96318.75
2023-02-06T00:02:32.530Z,96316.81
2023-02-06T00:04:58.969Z,96333.81
2023-02-06T00:07:25.696Z,96320.16
2023-02-06T00:09:52.101Z,96327.16
2023-02-06T00:12:19.278Z,96331.81
2023-02-06T00:14:46.238Z,96325.22
2023-02-06T00:17:12.893Z,96325.38
2023-02-06T00:19:39.238Z,96325.28
2023-02-06T00:22:05.630Z,96318.94
2023-02-06T00:24:32.007Z,96325.53
2023-02-06T00:26:58.688Z,96324.88
2023-02-06T00:29:25.034Z,96323.91
2023-02-06T00:31:51.633Z,96321.47
2023-02-06T00:34:18.985Z,96330.50
2023-02-06T00:36:50.235Z,96331.03
2023-02-06T00:39:18.417Z,96325.13
2023-02-06T00:41:44.842Z,96323.41
2023-02-06T00:44:11.877Z,96326.19
2023-02-06T00:46:40.758Z,96323.34
2023-02-06T00:49:07.456Z,96324.78
2023-02-06T00:51:36.268Z,96333.69
2023-02-06T00:54:05.242Z,96329.19
2023-02-06T00:56:31.943Z,96331.81
2023-02-06T00:58:58.433Z,96329.47
2023-02-06T01:01:24.828Z,96322.78
2023-02-06T01:03:51.167Z,96317.38
2023-02-06T01:06:20.699Z,96318.03
2023-02-06T01:08:52.381Z,96317.94
2023-02-06T01:11:23.460Z,96317.50
2023-02-06T01:13:49.880Z,96316.25
2023-02-06T01:16:20.800Z,96324.78
2023-02-06T01:18:50.218Z,96315.97
2023-02-06T01:21:17.202Z,96326.66
2023-02-06T01:23:43.884Z,96327.44
2023-02-06T01:26:13.422Z,96321.47
2023-02-06T01:28:40.341Z,96317.69
2023-02-06T01:31:07.503Z,96320.28
2023-02-06T01:33:34.516Z,96318.88
2023-02-06T01:36:02.539Z,96330.19
2023-02-06T01:38:29.187Z,96328.28
2023-02-06T01:40:55.626Z,96322.03
2023-02-06T01:43:22.291Z,96329.78
2023-02-06T01:45:53.381Z,96325.34
2023-02-06T01:48:20.019Z,96328.75
2023-02-06T01:50:46.927Z,96327.94
2023-02-06T01:53:25.156Z,96325.84
2023-02-06T01:55:51.507Z,96329.00
2023-02-06T01:58:18.280Z,96316.84
2023-02-06T02:00:44.913Z,96318.06
2023-02-06T02:03:11.316Z,96321.75
2023-02-06T02:05:38.356Z,96309.97
2023-02-06T02:08:04.805Z,96314.34
2023-02-06T02:10:31.368Z,96298.25
2023-02-06T02:12:58.079Z,96304.44
2023-02-06T02:15:24.447Z,96298.97
2023-02-06T02:17:50.851Z,96301.59
2023-02-06T02:20:18.441Z,96296.69
2023-02-06T02:22:45.361Z,96294.72
2023-02-06T02:25:11.959Z,96297.28
2023-02-06T02:27:38.455Z,96292.66
2023-02-06T02:30:05.003Z,96286.66
2023-02-06T02:32:40.146Z,96284.91
2023-02-06T02:35:06.898Z,96286.59
2023-02-06T02:37:33.843Z,96281.31
2023-02-06T02:40:00.444Z,96276.25
2023-02-06T02:42:26.837Z,96281.22
2023-02-06T02:44:55.478Z,96284.03
2023-02-06T02:47:21.977Z,96280.66
2023-02-06T02:49:50.871Z,96277.69
2023-02-06T02:52:17.261Z,96281.41
2023-02-06T02:54:46.277Z,96264.59
2023-02-06T02:57:12.720Z,96271.16
2023-02-06T02:59:41.697Z,96270.44
2023-02-06T03:02:09.109Z,96266.59
2023-02-06T03:04:36.924Z,96262.16
2023-02-06T03:07:03.423Z,96259.34
2023-02-06T03:09:29.874Z,96248.25
2023-02-06T03:11:57.099Z,96249.19
2023-02-06T03:14:23.462Z,96247.88
2023-02-06T03:16:50.232Z,96252.31
2023-02-06T03:19:19.069Z,96243.91
2023-02-06T03:21:46.179Z,96247.94
2023-02-06T03:24:13.659Z,96256.97
2023-02-06T03:26:41.213Z,96254.75
2023-02-06T03:29:08.645Z,96248.53
2023-02-06T03:31:35.053Z,96250.38
2023-02-06T03:34:01.544Z,96252.22
2023-02-06T03:36:30.387Z,96255.00
2023-02-06T03:38:56.766Z,96256.66
2023-02-06T03:41:30.162Z,96265.28
2023-02-06T03:43:56.578Z,96258.75
2023-02-06T03:46:23.027Z,96264.38
2023-02-06T03:48:49.411Z,96270.00
2023-02-06T03:51:15.912Z,96263.72
2023-02-06T03:53:42.486Z,96267.19
2023-02-06T03:56:10.095Z,96264.63
2023-02-06T03:58:43.817Z,96266.78
2023-02-06T04:01:10.435Z,96257.25
2023-02-06T04:03:41.959Z,96256.03
2023-02-06T04:06:08.430Z,96254.50
2023-02-06T04:08:35.681Z,96260.28
2023-02-06T04:11:02.126Z,96255.78
2023-02-06T04:13:32.604Z,96265.16
2023-02-06T04:15:59.176Z,96271.00
2023-02-06T04:18:26.231Z,96270.09
2023-02-06T04:20:52.709Z,96277.19
2023-02-06T04:23:19.365Z,96276.09
2023-02-06T04:25:47.792Z,96273.44
2023-02-06T04:28:14.680Z,96281.53
2023-02-06T04:30:41.234Z,96286.81
2023-02-06T04:33:11.902Z,96279.72
2023-02-06T04:35:38.459Z,96276.53
2023-02-06T04:38:04.908Z,96273.28
2023-02-06T04:40:31.493Z,96280.38
2023-02-06T04:42:58.207Z,96286.06
2023-02-06T04:45:24.952Z,96274.28
2023-02-06T04:47:51.570Z,96276.19
2023-02-06T04:50:20.830Z,96280.13
2023-02-06T04:52:47.407Z,96266.66
2023-02-06T04:55:13.760Z,96277.88
2023-02-06T04:57:40.818Z,96268.38
2023-02-06T05:00:11.445Z,96267.63
2023-02-06T05:02:39.095Z,96268.56
2023-02-06T05:05:06.576Z,96262.50
2023-02-06T05:07:32.920Z,96268.38
2023-02-06T05:09:59.808Z,96260.28
2023-02-06T05:12:26.522Z,96264.38
2023-02-06T05:14:55.230Z,96267.97
2023-02-06T05:17:21.694Z,96276.59
2023-02-06T05:19:48.253Z,96268.03
2023-02-06T05:22:14.612Z,96268.31
2023-02-06T05:24:43.396Z,96264.84
2023-02-06T05:27:12.070Z,96259.25
2023-02-06T05:29:39.753Z,96265.75
2023-02-06T05:32:07.209Z,96262.41
2023-02-06T05:34:34.303Z,96261.47
2023-02-06T05:37:00.777Z,96260.03
2023-02-06T05:39:27.365Z,96254.03
2023-02-06T05:41:54.262Z,96252.53
2023-02-06T05:44:20.687Z,96249.91
2023-02-06T05:46:47.086Z,96254.94
2023-02-06T05:49:17.092Z,96251.06
2023-02-06T05:51:43.498Z,96247.69
2023-02-06T05:54:12.734Z,96251.81
2023-02-06T05:56:39.747Z,96245.88
2023-02-06T05:59:08.472Z,96254.06
2023-02-06T06:01:35.310Z,96254.19
2023-02-06T06:04:01.817Z,96240.19
2023-02-06T06:06:28.472Z,96241.13
2023-02-06T06:08:57.996Z,96241.22
2023-02-06T06:11:24.419Z,96239.66
2023-02-06T06:13:51.172Z,96249.72
2023-02-06T06:16:17.682Z,96245.88
2023-02-06T06:18:47.357Z,96246.06
2023-02-06T06:21:13.733Z,96238.06
2023-02-06T06:23:40.094Z,96244.94
2023-02-06T06:26:06.908Z,96240.28
2023-02-06T06:28:35.574Z,96241.56
2023-02-06T06:31:03.030Z,96250.06
2023-02-06T06:33:29.778Z,96249.78
2023-02-06T06:35:58.432Z,96248.28
2023-02-06T06:38:24.976Z,96252.59
2023-02-06T06:40:51.399Z,96251.97
2023-02-06T06:43:17.808Z,96254.91
2023-02-06T06:45:44.237Z,96253.47
2023-02-06T06:48:10.658Z,96249.00
2023-02-06T06:50:37.054Z,96240.03
2023-02-06T06:53:03.743Z,96239.59
2023-02-06T06:55:30.558Z,96243.00
2023-02-06T06:57:57.484Z,96239.16
2023-02-06T07:00:24.301Z,96237.94
2023-02-06T07:02:50.769Z,96239.03
2023-02-06T07:05:17.224Z,96244.41
2023-02-06T07:07:43.626Z,96245.41
2023-02-06T07:10:12.390Z,96232.28
2023-02-06T08:32:55.608Z,96263.88
2023-02-06T08:35:22.114Z,96277.50
2023-02-06T08:37:50.933Z,96266.34
2023-02-06T08:40:17.313Z,96260.56
2023-02-06T08:42:43.696Z,96263.97
2023-02-06T08:45:10.093Z,96264.44
2023-02-06T08:47:36.587Z,96267.72
2023-02-06T08:50:03.723Z,96260.88
2023-02-06T08:52:30.305Z,96256.59
2023-02-06T08:54:57.018Z,96250.06
2023-02-06T08:57:23.382Z,96251.88
2023-02-06T08:59:49.790Z,96256.22
2023-02-06T09:02:16.436Z,96260.31
2023-02-06T09:04:42.905Z,96255.25
2023-02-06T09:07:09.448Z,96267.38
2023-02-06T09:09:35.843Z,96264.16
2023-02-06T09:12:02.227Z,96267.00
2023-02-06T09:14:28.910Z,96257.19
2023-02-06T09:16:55.289Z,96253.22
2023-02-06T09:19:21.702Z,96265.97
2023-02-06T09:21:48.040Z,96269.09
2023-02-06T09:24:14.553Z,96270.31
2023-02-06T09:26:57.318Z,96259.19
2023-02-06T09:29:25.274Z,96260.81
2023-02-06T09:31:51.868Z,96264.34
2023-02-06T09:34:18.199Z,96269.28
2023-02-06T09:36:44.833Z,96275.28
2023-02-06T09:39:11.297Z,96270.56
2023-02-06T09:41:37.712Z,96268.22
2023-02-06T09:44:04.114Z,96277.81
2023-02-06T09:46:33.062Z,96278.28
2023-02-06T09:48:59.655Z,96280.97
2023-02-06T09:51:26.213Z,96286.03
2023-02-06T09:53:52.648Z,96287.63
2023-02-06T09:56:19.355Z,96287.56
2023-02-06T09:58:45.711Z,96275.56
2023-02-06T10:01:12.129Z,96282.63
2023-02-06T10:03:38.485Z,96283.19
2023-02-06T10:06:05.889Z,96280.97
2023-02-06T10:08:34.475Z,96290.59
2023-02-06T10:11:01.039Z,96292.84
2023-02-06T10:13:27.551Z,96292.13
2023-02-06T10:15:55.954Z,96283.34
2023-02-06T10:18:22.498Z,96284.19
2023-02-06T10:20:49.008Z,96272.84
2023-02-06T10:23:16.295Z,96276.88
2023-02-06T10:25:42.739Z,96269.53
2023-02-06T10:28:09.221Z,96274.03
2023-02-06T10:30:35.649Z,96261.97
2023-02-06T10:33:04.368Z,96267.97
2023-02-06T10:35:36.809Z,96268.00
2023-02-06T10:38:03.382Z,96262.44
2023-02-06T10:40:33.903Z,96261.50
2023-02-06T10:43:00.303Z,96268.69
2023-02-06T10:45:26.693Z,96268.19
2023-02-06T10:47:53.139Z,96262.72
2023-02-06T10:50:19.650Z,96262.38
2023-02-06T10:52:47.149Z,96255.00
2023-02-06T10:55:14.689Z,96262.63
2023-02-06T10:57:44.002Z,96255.06
2023-02-06T11:00:10.398Z,96251.66
2023-02-06T11:02:36.734Z,96248.25
2023-02-06T11:05:03.605Z,96250.13
2023-02-06T11:07:31.655Z,96254.06
2023-02-06T11:09:58.119Z,96254.00
2023-02-06T11:12:25.134Z,96247.69
2023-02-06T11:14:51.502Z,96255.13
2023-02-06T11:17:18.873Z,96242.44
2023-02-06T11:19:46.081Z,96238.38
2023-02-06T11:22:13.027Z,96235.78
2023-02-06T11:24:41.784Z,96227.41
2023-02-06T11:27:08.186Z,96219.28
2023-02-06T11:29:36.876Z,96218.22
2023-02-06T11:32:03.637Z,96209.75
2023-02-06T11:34:30.170Z,96199.91
2023-02-06T11:36:57.234Z,96205.47
2023-02-06T11:39:23.928Z,96203.91
2023-02-06T11:41:52.576Z,96201.72
2023-02-06T11:44:19.021Z,96202.63
2023-02-06T11:46:45.521Z,96201.16
2023-02-06T11:49:16.218Z,96202.03
2023-02-06T11:51:42.568Z,96198.63
2023-02-06T11:54:08.982Z,96197.19
2023-02-06T11:56:35.688Z,96197.63
2023-02-06T11:59:02.699Z,96185.06
2023-02-06T12:01:29.224Z,96179.63
2023-02-06T12:03:56.291Z,96178.81
2023-02-06T12:06:22.783Z,96180.69
2023-02-06T12:08:50.839Z,96178.34
2023-02-06T12:11:17.543Z,96181.06
2023-02-06T12:13:43.939Z,96181.94
2023-02-06T12:16:11.462Z,96186.09
2023-02-06T12:18:38.122Z,96162.28
2023-02-06T12:21:04.558Z,96162.22
2023-02-06T12:23:33.042Z,96159.34
2023-02-06T12:25:59.491Z,96157.94
2023-02-06T12:28:26.938Z,96156.56
2023-02-06T12:30:53.416Z,96158.13
2023-02-06T12:33:21.393Z,96151.34
2023-02-06T12:35:48.105Z,96154.59
2023-02-06T12:38:14.578Z,96152.50
2023-02-06T12:40:41.054Z,96146.38
2023-02-06T12:43:09.623Z,96155.25
2023-02-06T12:45:36.248Z,96148.88
2023-02-06T12:48:02.850Z,96160.81
2023-02-06T12:50:36.655Z,96154.84
2023-02-06T12:53:04.011Z,96144.38
2023-02-06T12:55:31.643Z,96146.53
2023-02-06T12:58:06.161Z,96145.53
2023-02-06T13:00:33.667Z,96144.91
2023-02-06T13:03:00.819Z,96139.25
2023-02-06T13:05:27.257Z,96142.00
2023-02-06T13:07:56.130Z,96122.22
2023-02-06T13:10:23.090Z,96120.53
2023-02-06T13:12:49.469Z,96118.97
2023-02-06T13:15:15.955Z,96112.63
2023-02-06T13:17:44.678Z,96121.19
2023-02-06T13:20:11.060Z,96121.59
2023-02-06T13:22:39.527Z,96127.66
2023-02-06T13:25:06.938Z,96111.81
2023-02-06T13:27:33.511Z,96114.53
2023-02-06T13:29:59.862Z,96105.03
2023-02-06T13:32:27.243Z,96108.03
2023-02-06T13:34:53.912Z,96103.75
2023-02-06T13:37:20.386Z,96113.75
2023-02-06T13:39:47.883Z,96106.75
2023-02-06T13:42:14.350Z,96098.78
2023-02-06T13:44:42.422Z,96094.47
2023-02-06T13:47:12.085Z,96087.84
2023-02-06T13:49:38.661Z,96092.34
2023-02-06T13:52:05.068Z,96093.59
2023-02-06T13:54:34.363Z,96096.28
2023-02-06T13:57:02.222Z,96082.13
2023-02-06T13:59:28.602Z,96087.09
2023-02-06T14:01:55.045Z,96097.78
2023-02-06T14:04:25.070Z,96096.59
2023-02-06T14:06:55.157Z,96094.72
2023-02-06T14:09:21.598Z,96108.53
2023-02-06T14:11:48.063Z,96107.69
2023-02-06T14:14:15.854Z,96108.50
2023-02-06T14:16:42.371Z,96093.31
2023-02-06T14:19:09.745Z,96085.44
2023-02-06T14:21:36.097Z,96088.34
2023-02-06T14:24:03.355Z,96082.72
2023-02-06T14:26:29.945Z,96089.22
2023-02-06T14:28:58.592Z,96086.75
2023-02-06T14:31:25.087Z,96076.81
2023-02-06T14:33:51.617Z,96075.84
2023-02-06T14:36:18.432Z,96070.09
2023-02-06T14:38:45.871Z,96073.31
2023-02-06T14:41:12.325Z,96073.88
2023-02-06T14:43:43.592Z,96079.94
2023-02-06T14:46:10.412Z,96069.53
2023-02-06T14:48:37.358Z,96073.50
2023-02-06T14:51:07.955Z,96075.19
2023-02-06T14:53:47.154Z,96073.41
2023-02-06T14:56:15.358Z,96077.63
2023-02-06T14:58:42.136Z,96084.44
2023-02-06T15:01:08.963Z,96088.09
2023-02-06T15:03:36.020Z,96084.28
2023-02-06T15:06:02.555Z,96084.44
2023-02-06T15:08:28.953Z,96075.56
2023-02-06T15:10:55.834Z,96076.34
2023-02-06T15:13:23.407Z,96083.75
2023-02-06T15:15:49.788Z,96087.81
2023-02-06T15:18:16.611Z,96089.59
2023-02-06T15:20:42.995Z,96090.41
2023-02-06T15:23:17.784Z,96090.31
2023-02-06T15:25:44.982Z,96083.13
2023-02-06T15:28:11.760Z,96087.06
2023-02-06T15:30:38.615Z,96078.34
2023-02-06T15:33:07.448Z,96079.44
2023-02-06T15:35:34.242Z,96082.31
2023-02-06T15:38:00.640Z,96086.63
2023-02-06T15:40:27.009Z,96082.47
2023-02-06T15:42:53.497Z,96084.69
2023-02-06T15:45:19.889Z,96090.97
2023-02-06T15:47:46.381Z,96084.06
2023-02-06T15:50:12.743Z,96094.53
2023-02-06T15:52:39.078Z,96092.84
2023-02-06T15:55:05.535Z,96085.75
2023-02-06T15:57:31.932Z,96082.91
2023-02-06T15:59:58.297Z,96074.03
2023-02-06T16:02:25.004Z,96073.72
2023-02-06T16:04:51.846Z,96070.91
2023-02-06T16:07:19.077Z,96069.41
2023-02-06T16:09:45.542Z,96069.53
2023-02-06T16:12:12.762Z,96056.28
2023-02-06T16:14:39.181Z,96063.56
2023-02-06T16:17:05.568Z,96055.84
2023-02-06T16:19:31.957Z,96054.81
2023-02-06T16:21:58.444Z,96058.88
2023-02-06T16:24:24.969Z,96061.69
2023-02-06T16:26:51.456Z,96060.84
2023-02-06T16:29:17.978Z,96077.84
2023-02-06T16:31:44.718Z,96072.94
2023-02-06T16:34:11.343Z,96079.97
2023-02-06T16:36:37.897Z,96069.53
2023-02-06T16:39:04.943Z,96070.38
2023-02-06T16:41:31.364Z,96076.75
2023-02-06T16:43:57.876Z,96077.03
2023-02-06T16:46:24.241Z,96074.25
2023-02-06T16:48:50.609Z,96081.47
2023-02-06T16:51:16.996Z,96077.56
2023-02-06T16:53:45.348Z,96082.19
2023-02-06T16:56:12.624Z,96090.41
2023-02-06T16:58:39.065Z,96092.63
2023-02-06T18:49:30.586Z,96036.47
2023-02-06T18:51:57.282Z,96040.78
2023-02-06T18:54:25.937Z,96035.84
2023-02-06T18:56:52.868Z,96025.69
2023-02-06T18:59:22.357Z,96018.16
2023-02-06T19:01:49.748Z,96013.28
2023-02-06T19:04:16.201Z,95991.28
2023-02-06T19:06:42.798Z,95995.72
2023-02-06T19:09:09.643Z,96005.66
2023-02-06T19:11:36.580Z,96004.72
2023-02-06T19:14:02.950Z,96002.00
2023-02-06T19:16:32.240Z,95990.94
2023-02-06T19:18:59.001Z,95981.88
2023-02-06T19:21:25.389Z,95986.59
